createdAt,value
2017-08-17T00:27:20.114Z,42.60
2017-08-17T00:29:46.230Z,43.53
2017-08-17T00:32:12.478Z,44.07
2017-08-17T00:34:38.823Z,44.47
2017-08-17T00:37:05.133Z,44.93
2017-08-17T00:39:31.333Z,43.60
2017-08-17T00:41:57.590Z,48.23
2017-08-17T00:44:23.784Z,50.43
2017-08-17T00:46:50.334Z,54.37
2017-08-17T00:49:16.578Z,50.10
2017-08-17T00:51:42.829Z,56.50
2017-08-17T00:54:09.683Z,55.37
2017-08-17T00:56:36.690Z,48.17
2017-08-17T00:59:02.942Z,49.13
2017-08-17T01:01:29.111Z,48.50
2017-08-17T01:03:55.998Z,49.23
2017-08-17T01:06:22.212Z,51.97
2017-08-17T01:08:48.410Z,52.50
2017-08-17T01:11:14.657Z,52.17
2017-08-17T01:13:40.911Z,53.00
2017-08-17T01:16:07.093Z,52.10
2017-08-17T01:18:33.282Z,50.37
2017-08-17T01:20:59.451Z,48.57
2017-08-17T01:23:25.597Z,47.30
2017-08-17T01:25:51.858Z,43.77
2017-08-17T01:28:18.038Z,48.90
2017-08-17T01:30:44.183Z,51.97
2017-08-17T01:33:10.412Z,50.97
2017-08-17T01:35:36.627Z,50.73
2017-08-17T01:38:02.838Z,50.20
2017-08-17T01:40:29.721Z,49.47
2017-08-17T01:42:56.030Z,48.23
2017-08-17T01:45:22.265Z,47.90
2017-08-17T01:47:48.519Z,46.83
2017-08-17T01:50:14.735Z,49.23
2017-08-17T01:52:40.938Z,50.97
2017-08-17T01:55:07.201Z,50.57
2017-08-17T01:57:33.392Z,49.40
2017-08-17T01:59:59.558Z,50.03
2017-08-17T02:02:25.763Z,52.47
2017-08-17T02:04:51.971Z,49.90
2017-08-17T02:07:18.095Z,51.30
2017-08-17T02:09:44.425Z,49.17
2017-08-17T02:12:10.551Z,49.80
2017-08-17T02:14:36.683Z,53.90
2017-08-17T02:17:02.809Z,53.07
2017-08-17T02:19:29.646Z,53.57
2017-08-17T02:21:55.781Z,51.40
2017-08-17T02:24:22.020Z,52.30
2017-08-17T02:26:48.221Z,50.23
2017-08-17T02:29:14.349Z,50.40
2017-08-17T02:31:40.490Z,50.27
2017-08-17T02:34:06.630Z,51.07
2017-08-17T02:36:32.817Z,48.93
2017-08-17T02:38:58.989Z,48.63
2017-08-17T02:41:25.229Z,45.80
2017-08-17T02:43:51.418Z,48.10
2017-08-17T02:46:17.557Z,49.73
2017-08-17T02:48:43.768Z,50.80
2017-08-17T02:51:10.613Z,50.13
2017-08-17T02:53:36.759Z,48.83
2017-08-17T02:56:02.953Z,49.77
2017-08-17T02:58:29.089Z,50.00
2017-08-17T03:00:59.270Z,47.87
2017-08-17T03:03:25.443Z,48.80
2017-08-17T03:05:51.552Z,50.43
2017-08-17T03:08:17.727Z,49.80
2017-08-17T03:10:43.926Z,47.77
2017-08-17T03:13:10.050Z,47.47
2017-08-17T03:15:36.430Z,49.37
2017-08-17T03:18:02.594Z,48.93
2017-08-17T03:20:28.717Z,49.47
2017-08-17T03:22:55.108Z,49.93
2017-08-17T03:25:21.292Z,49.50
2017-08-17T03:27:47.495Z,49.70
2017-08-17T03:30:13.891Z,55.20
2017-08-17T03:32:40.089Z,52.60
2017-08-17T03:35:06.941Z,48.33
2017-08-17T03:37:33.900Z,47.60
2017-08-17T03:40:00.825Z,48.00
2017-08-17T03:42:27.765Z,44.37
2017-08-17T03:44:53.896Z,46.63
2017-08-17T03:47:20.853Z,47.30
2017-08-17T03:49:46.945Z,46.87
2017-08-17T03:52:13.105Z,47.30
2017-08-17T03:54:39.311Z,46.57
2017-08-17T03:57:05.430Z,47.47
2017-08-17T03:59:31.578Z,47.03
2017-08-17T04:01:58.557Z,48.63
2017-08-17T04:04:25.464Z,45.13
2017-08-17T04:06:51.698Z,45.40
2017-08-17T04:09:18.627Z,44.70
2017-08-17T04:11:45.469Z,43.93
2017-08-17T04:14:12.327Z,41.97
2017-08-17T04:16:39.551Z,42.57
2017-08-17T04:19:05.678Z,40.17
2017-08-17T04:21:32.707Z,39.97
2017-08-17T04:23:59.622Z,40.20
2017-08-17T04:26:25.852Z,40.07
2017-08-17T04:28:51.991Z,38.97
2017-08-17T04:31:18.147Z,38.63
2017-08-17T04:33:44.282Z,36.67
2017-08-17T04:36:10.441Z,37.70
2017-08-17T04:38:37.419Z,38.53
2017-08-17T04:41:03.552Z,37.07
2017-08-17T04:43:30.656Z,35.93
2017-08-17T04:45:56.859Z,40.40
2017-08-17T04:48:23.707Z,40.37
2017-08-17T04:50:50.585Z,42.50
2017-08-17T04:53:17.496Z,41.23
2017-08-17T04:55:43.592Z,43.70
2017-08-17T04:58:29.234Z,42.67
2017-08-17T05:00:55.342Z,41.73
2017-08-17T05:03:21.551Z,44.07
2017-08-17T05:05:48.544Z,43.87
2017-08-17T05:08:14.774Z,41.67
2017-08-17T05:10:41.014Z,42.10
2017-08-17T05:13:07.197Z,41.70
2017-08-17T05:15:33.409Z,40.70
2017-08-17T05:17:59.541Z,40.70
2017-08-17T05:20:25.700Z,39.30
2017-08-17T05:22:51.887Z,38.27
2017-08-17T05:25:18.043Z,40.67
2017-08-17T05:27:44.274Z,36.97
2017-08-17T05:30:11.524Z,38.07
2017-08-17T05:32:38.783Z,36.57
2017-08-17T05:35:06.062Z,35.30
2017-08-17T05:37:32.216Z,36.20
2017-08-17T05:39:58.436Z,38.10
2017-08-17T05:42:25.347Z,35.00
2017-08-17T05:44:52.261Z,34.60
2017-08-17T05:47:19.517Z,34.53
2017-08-17T05:49:46.573Z,34.17
2017-08-17T05:52:13.810Z,32.93
2017-08-17T05:54:40.654Z,31.77
2017-08-17T05:57:07.930Z,31.20
2017-08-17T05:59:34.026Z,27.67
2017-08-17T06:02:00.898Z,27.10
2017-08-17T06:04:27.847Z,27.20
2017-08-17T06:06:54.767Z,27.27
2017-08-17T06:09:21.273Z,27.43
2017-08-17T06:11:47.656Z,28.57
2017-08-17T06:14:14.573Z,28.87
2017-08-17T06:16:41.426Z,26.60
2017-08-17T06:19:08.764Z,25.33
2017-08-17T06:21:35.630Z,25.33
2017-08-17T06:24:02.166Z,25.87
2017-08-17T06:26:29.129Z,24.93
2017-08-17T06:28:55.489Z,26.97
2017-08-17T06:31:21.638Z,24.53
2017-08-17T06:33:48.214Z,25.10
2017-08-17T06:36:14.392Z,23.60
2017-08-17T06:38:41.298Z,23.07
2017-08-17T06:41:07.628Z,23.43
2017-08-17T06:43:33.802Z,23.50
2017-08-17T06:45:59.940Z,21.43
2017-08-17T06:48:26.261Z,21.77
2017-08-17T06:50:52.419Z,21.47
2017-08-17T06:53:18.637Z,20.60
2017-08-17T06:55:45.206Z,19.50
2017-08-17T06:58:11.314Z,20.53
2017-08-17T07:00:37.522Z,18.90
2017-08-17T07:03:03.974Z,18.03
2017-08-17T07:05:30.158Z,16.07
2017-08-17T07:07:56.305Z,16.73
2017-08-17T07:10:22.852Z,15.33
2017-08-17T07:12:49.112Z,18.07
2017-08-17T07:15:16.224Z,14.50
2017-08-17T07:17:42.435Z,15.40
2017-08-17T07:20:08.594Z,14.30
2017-08-17T07:22:35.028Z,15.93
2017-08-17T07:25:01.283Z,14.93
2017-08-17T07:27:27.555Z,14.93
2017-08-17T07:29:54.522Z,13.30
2017-08-17T07:32:20.759Z,14.50
2017-08-17T07:34:48.011Z,14.07
2017-08-17T07:37:15.301Z,13.13
2017-08-17T07:39:41.521Z,13.10
2017-08-17T07:42:07.794Z,11.17
2017-08-17T07:44:34.013Z,12.30
2017-08-17T07:47:00.199Z,12.00
2017-08-17T07:49:26.394Z,11.93
2017-08-17T07:51:52.609Z,12.03
2017-08-17T07:54:18.840Z,13.40
2017-08-17T07:56:44.965Z,13.20
2017-08-17T07:59:11.101Z,12.00
2017-08-17T08:01:37.354Z,12.23
2017-08-17T08:04:03.544Z,12.80
2017-08-17T08:06:29.741Z,11.20
2017-08-17T08:08:55.972Z,11.40
2017-08-17T08:11:22.135Z,11.50
2017-08-17T08:13:48.351Z,9.50
2017-08-17T08:16:14.516Z,11.00
2017-08-17T08:18:40.740Z,11.03
2017-08-17T08:21:06.944Z,10.67
2017-08-17T08:23:33.130Z,10.57
2017-08-17T08:25:59.316Z,11.10
2017-08-17T08:28:25.539Z,10.30
2017-08-17T08:30:51.800Z,9.23
2017-08-17T08:33:18.000Z,11.10
2017-08-17T08:35:44.977Z,9.50
2017-08-17T08:38:11.206Z,9.70
2017-08-17T08:40:37.377Z,9.53
2017-08-17T08:43:03.534Z,8.47
2017-08-17T08:45:29.782Z,8.90
2017-08-17T08:47:55.946Z,9.60
2017-08-17T08:50:22.091Z,8.00
2017-08-17T08:52:48.369Z,8.60
2017-08-17T08:55:14.549Z,9.80
2017-08-17T08:57:40.672Z,8.70
2017-08-17T09:00:07.619Z,8.80
2017-08-17T09:02:33.953Z,8.10
2017-08-17T09:05:00.175Z,9.07
2017-08-17T09:07:26.340Z,8.60
2017-08-17T09:09:52.523Z,8.83
2017-08-17T09:12:18.676Z,7.93
2017-08-17T09:14:44.969Z,7.90
2017-08-17T09:17:11.156Z,8.30
2017-08-17T09:19:37.344Z,8.90
2017-08-17T09:22:03.530Z,9.10
2017-08-17T09:24:30.708Z,7.60
2017-08-17T09:26:56.921Z,7.87
2017-08-17T09:29:23.110Z,8.07
2017-08-17T09:31:49.392Z,8.40
2017-08-17T09:34:15.535Z,8.67
2017-08-17T09:36:41.700Z,7.70
2017-08-17T09:39:07.889Z,7.50
2017-08-17T09:41:34.001Z,8.57
2017-08-17T09:44:00.161Z,7.90
2017-08-17T09:46:26.360Z,7.67
2017-08-17T09:48:52.495Z,7.67
2017-08-17T09:51:18.665Z,7.93
2017-08-17T09:53:45.854Z,6.80
2017-08-17T09:56:11.984Z,7.17
2017-08-17T09:58:38.159Z,7.00
2017-08-17T10:01:04.297Z,6.70
2017-08-17T10:03:30.458Z,5.97
2017-08-17T10:05:56.623Z,6.30
2017-08-17T10:08:22.838Z,6.90
2017-08-17T10:10:49.362Z,8.27
2017-08-17T10:13:15.529Z,7.20
2017-08-17T10:15:41.722Z,6.87
2017-08-17T10:18:08.556Z,7.40
2017-08-17T10:20:34.704Z,7.57
2017-08-17T10:23:01.038Z,6.30
2017-08-17T10:25:27.316Z,6.23
2017-08-17T10:27:53.517Z,7.73
2017-08-17T10:30:19.718Z,6.50
2017-08-17T10:32:45.925Z,7.13
2017-08-17T10:35:12.076Z,7.27
2017-08-17T10:37:38.185Z,7.07
2017-08-17T10:40:04.299Z,6.53
2017-08-17T10:42:31.198Z,7.40
2017-08-17T10:44:58.149Z,7.50
2017-08-17T10:47:24.299Z,7.67
2017-08-17T10:49:50.465Z,7.63
2017-08-17T10:52:16.691Z,7.93
2017-08-17T10:54:42.904Z,8.77
2017-08-17T10:57:09.068Z,8.90
2017-08-17T10:59:35.257Z,8.60
2017-08-17T11:02:01.396Z,7.43
2017-08-17T11:04:27.721Z,8.03
2017-08-17T11:06:53.877Z,7.17
2017-08-17T11:09:20.103Z,7.50
2017-08-17T11:11:46.327Z,8.50
2017-08-17T11:14:12.458Z,7.13
2017-08-17T11:16:38.640Z,6.63
2017-08-17T11:19:04.819Z,6.90
2017-08-17T11:21:31.073Z,7.20
2017-08-17T11:23:57.255Z,6.57
2017-08-17T11:26:23.520Z,6.17
2017-08-17T11:28:49.717Z,6.50
2017-08-17T11:31:15.843Z,6.10
2017-08-17T11:33:43.648Z,7.57
2017-08-17T11:36:09.839Z,5.70
2017-08-17T11:38:36.044Z,6.03
2017-08-17T11:41:03.761Z,6.20
2017-08-17T11:43:29.917Z,6.00
2017-08-17T11:45:56.171Z,5.80
2017-08-17T11:48:24.139Z,6.30
2017-08-17T11:50:50.377Z,6.90
2017-08-17T11:53:16.571Z,7.30
2017-08-17T11:55:42.725Z,7.43
2017-08-17T11:58:08.925Z,5.70
2017-08-17T12:00:35.191Z,6.63
2017-08-17T12:03:01.437Z,8.53
2017-08-17T12:05:27.638Z,6.10
2017-08-17T12:07:54.604Z,6.33
2017-08-17T12:10:20.768Z,7.23
2017-08-17T12:12:47.677Z,6.40
2017-08-17T12:15:13.869Z,7.93
2017-08-17T12:17:40.131Z,7.47
2017-08-17T12:20:06.346Z,6.77
2017-08-17T12:22:32.549Z,7.00
2017-08-17T12:24:58.718Z,6.73
2017-08-17T12:27:24.956Z,7.00
2017-08-17T12:29:51.883Z,6.60
2017-08-17T12:32:18.101Z,6.00
2017-08-17T12:34:44.304Z,7.50
2017-08-17T12:37:10.454Z,6.73
2017-08-17T12:39:36.697Z,6.33
2017-08-17T12:42:02.911Z,5.80
2017-08-17T12:44:29.153Z,6.30
2017-08-17T12:46:55.322Z,7.20
2017-08-17T12:49:21.487Z,6.63
2017-08-17T12:51:47.714Z,7.13
2017-08-17T12:54:13.973Z,6.67
2017-08-17T12:56:40.183Z,6.63
2017-08-17T12:59:06.417Z,6.33
2017-08-17T13:01:32.681Z,6.20
2017-08-17T13:03:58.866Z,8.90
2017-08-17T13:06:25.122Z,8.17
2017-08-17T13:08:51.341Z,5.93
2017-08-17T13:11:17.541Z,6.30
2017-08-17T13:13:43.819Z,7.50
2017-08-17T13:16:10.068Z,6.57
2017-08-17T13:18:36.262Z,7.20
2017-08-17T13:21:02.491Z,6.20
2017-08-17T13:23:28.702Z,7.53
2017-08-17T13:25:54.924Z,8.37
2017-08-17T13:28:21.228Z,7.60
2017-08-17T13:30:47.423Z,7.90
2017-08-17T13:33:13.630Z,7.27
2017-08-17T13:35:39.827Z,8.30
2017-08-17T13:38:06.129Z,7.47
2017-08-17T13:40:32.251Z,7.30
2017-08-17T13:42:58.410Z,7.37
2017-08-17T13:45:24.669Z,8.03
2017-08-17T13:47:50.906Z,8.47
2017-08-17T13:50:17.121Z,7.30
2017-08-17T13:52:43.371Z,8.40
2017-08-17T13:55:09.644Z,7.70
2017-08-17T13:57:35.806Z,7.73
2017-08-17T14:00:02.081Z,7.83
2017-08-17T14:02:28.263Z,7.80
2017-08-17T14:04:54.444Z,8.30
2017-08-17T14:07:20.619Z,7.20
2017-08-17T14:09:46.782Z,7.63
2017-08-17T14:12:13.026Z,7.50
2017-08-17T14:14:39.297Z,7.47
2017-08-17T14:17:06.254Z,8.63
2017-08-17T14:19:32.419Z,8.70
2017-08-17T14:21:58.601Z,7.90
2017-08-17T14:24:24.789Z,8.50
2017-08-17T14:26:50.921Z,8.90
2017-08-17T14:29:17.114Z,7.87
2017-08-17T14:31:43.325Z,8.00
2017-08-17T14:34:09.461Z,7.13
2017-08-17T14:36:36.649Z,7.07
2017-08-17T14:39:02.807Z,6.67
2017-08-17T14:41:29.014Z,7.53
2017-08-17T14:43:55.303Z,8.67
2017-08-17T14:46:21.471Z,7.13
2017-08-17T14:48:47.726Z,7.87
2017-08-17T14:51:14.005Z,7.40
2017-08-17T14:53:40.156Z,7.63
2017-08-17T14:56:06.377Z,7.10
2017-08-17T14:58:32.648Z,7.40
2017-08-17T15:00:58.830Z,6.57
2017-08-17T15:03:25.704Z,6.93
2017-08-17T15:05:51.940Z,6.50
2017-08-17T15:08:18.162Z,7.17
2017-08-17T15:10:44.293Z,7.30
2017-08-17T15:13:10.593Z,8.10
2017-08-17T15:15:37.848Z,7.17
2017-08-17T15:18:04.096Z,7.60
2017-08-17T15:20:30.326Z,6.73
2017-08-17T15:22:56.541Z,6.70
2017-08-17T15:25:22.822Z,8.00
2017-08-17T15:27:50.143Z,8.30
2017-08-17T15:30:16.256Z,6.50
2017-08-17T15:32:42.461Z,6.97
2017-08-17T15:35:08.618Z,6.90
2017-08-17T15:37:34.887Z,8.80
2017-08-17T15:40:01.058Z,8.03
2017-08-17T15:42:28.061Z,7.80
2017-08-17T15:44:54.237Z,8.40
2017-08-17T15:47:20.472Z,8.40
2017-08-17T15:49:46.783Z,7.40
2017-08-17T15:52:13.031Z,7.47
2017-08-17T15:54:39.237Z,7.80
2017-08-17T15:57:05.517Z,7.77
2017-08-17T15:59:31.690Z,7.33
2017-08-17T16:01:57.803Z,9.77
2017-08-17T16:04:24.050Z,9.20
2017-08-17T16:06:50.923Z,7.60
2017-08-17T16:09:17.116Z,6.73
2017-08-17T16:11:44.064Z,7.10
2017-08-17T16:14:11.672Z,8.30
2017-08-17T16:16:38.160Z,7.83
2017-08-17T16:19:04.292Z,7.53
2017-08-17T16:21:31.294Z,8.03
2017-08-17T16:23:57.691Z,7.50
2017-08-17T16:26:23.924Z,7.53
2017-08-17T16:28:50.163Z,8.70
2017-08-17T16:31:16.442Z,9.10
2017-08-17T16:33:42.636Z,7.50
2017-08-17T16:36:08.801Z,9.80
2017-08-17T16:38:35.002Z,8.90
2017-08-17T16:41:02.110Z,9.07
2017-08-17T16:43:28.417Z,9.63
2017-08-17T16:45:54.643Z,9.07
2017-08-17T16:48:20.936Z,8.10
2017-08-17T16:50:47.206Z,6.90
2017-08-17T16:53:14.084Z,8.20
2017-08-17T16:55:41.407Z,7.90
2017-08-17T16:58:07.674Z,8.60
2017-08-17T17:00:33.938Z,8.10
2017-08-17T17:03:00.116Z,8.37
2017-08-17T17:05:26.346Z,8.50
2017-08-17T17:07:52.576Z,8.80
2017-08-17T17:10:18.809Z,8.80
2017-08-17T17:12:45.890Z,9.30
2017-08-17T17:15:12.247Z,8.50
2017-08-17T17:17:38.598Z,8.80
2017-08-17T17:20:05.981Z,8.40
2017-08-17T17:22:32.180Z,13.80
2017-08-17T17:24:58.510Z,8.80
2017-08-17T17:27:24.749Z,8.90
2017-08-17T17:29:51.653Z,10.40
2017-08-17T17:32:18.001Z,8.53
2017-08-17T17:34:44.231Z,9.20
2017-08-17T17:37:10.536Z,8.23
2017-08-17T17:39:37.075Z,11.10
2017-08-17T17:42:03.336Z,9.70
2017-08-17T17:44:29.732Z,10.00
2017-08-17T17:46:56.094Z,12.93
2017-08-17T17:49:22.648Z,8.90
2017-08-17T17:51:48.944Z,11.30
2017-08-17T17:54:15.347Z,9.60
2017-08-17T17:56:41.585Z,8.90
2017-08-17T17:59:07.740Z,9.20
2017-08-17T18:01:34.034Z,10.07
2017-08-17T18:04:00.205Z,10.07
2017-08-17T18:06:26.444Z,8.80
2017-08-17T18:08:52.765Z,10.70
2017-08-17T18:11:19.126Z,15.57
2017-08-17T18:13:45.329Z,10.30
2017-08-17T18:16:11.573Z,9.80
2017-08-17T18:18:37.744Z,10.67
2017-08-17T18:21:03.992Z,9.70
2017-08-17T18:23:30.191Z,10.83
2017-08-17T18:25:56.391Z,10.30
2017-08-17T18:28:22.601Z,10.17
2017-08-17T18:30:48.838Z,10.30
2017-08-17T18:33:15.056Z,10.40
2017-08-17T18:35:41.213Z,10.70
2017-08-17T18:38:07.456Z,10.70
2017-08-17T18:40:33.638Z,10.50
2017-08-17T18:43:00.136Z,11.80
2017-08-17T18:45:26.520Z,11.17
2017-08-17T18:47:52.930Z,12.10
2017-08-17T18:50:20.179Z,12.93
2017-08-17T18:52:46.535Z,12.90
2017-08-17T18:55:13.151Z,13.03
2017-08-17T18:57:39.554Z,12.60
2017-08-17T19:00:06.041Z,13.93
2017-08-17T19:02:32.383Z,15.10
2017-08-17T19:04:58.652Z,16.23
2017-08-17T19:07:25.280Z,14.80
2017-08-17T19:09:51.564Z,12.70
2017-08-17T19:12:17.822Z,12.80
2017-08-17T19:14:44.097Z,15.20
2017-08-17T19:17:10.354Z,13.80
2017-08-17T19:19:36.612Z,17.10
2017-08-17T19:22:03.762Z,16.60
2017-08-17T19:24:30.110Z,18.23
2017-08-17T19:26:56.834Z,27.90
2017-08-17T19:29:23.236Z,17.73
2017-08-17T19:31:49.609Z,17.83
2017-08-17T19:34:16.037Z,19.53
2017-08-17T19:36:42.382Z,17.83
2017-08-17T19:39:08.670Z,19.60
2017-08-17T19:41:34.953Z,22.63
2017-08-17T19:44:01.272Z,23.50
2017-08-17T19:46:27.549Z,25.97
2017-08-17T19:48:53.802Z,34.90
2017-08-17T19:51:20.022Z,45.97
2017-08-17T19:53:46.235Z,27.47
2017-08-17T19:56:12.590Z,29.27
2017-08-17T19:58:38.910Z,26.67
2017-08-17T20:01:05.121Z,22.17
2017-08-17T20:03:31.366Z,21.00
2017-08-17T20:05:58.305Z,21.93
2017-08-17T20:08:24.500Z,28.03
2017-08-17T20:10:51.468Z,27.53
2017-08-17T20:13:17.639Z,28.63
2017-08-17T20:15:43.934Z,25.80
2017-08-17T20:18:10.037Z,24.77
2017-08-17T20:20:36.285Z,21.97
2017-08-17T20:23:02.593Z,19.87
2017-08-17T20:25:29.459Z,21.20
2017-08-17T20:27:55.914Z,19.30
2017-08-17T20:30:22.098Z,19.63
2017-08-17T20:32:48.995Z,23.83
2017-08-17T20:35:16.758Z,22.90
2017-08-17T20:37:42.938Z,29.47
2017-08-17T20:40:09.057Z,23.00
2017-08-17T20:42:35.549Z,23.40
2017-08-17T20:45:02.476Z,20.67
2017-08-17T20:47:28.589Z,22.30
2017-08-17T20:49:55.046Z,21.80
2017-08-17T20:52:22.034Z,21.93
2017-08-17T20:54:48.256Z,33.60
2017-08-17T20:57:14.696Z,28.90
2017-08-17T20:59:40.913Z,26.03
2017-08-17T21:02:07.073Z,25.93
2017-08-17T21:04:33.636Z,33.17
2017-08-17T21:06:59.746Z,32.83
2017-08-17T21:09:25.981Z,33.70
2017-08-17T21:11:53.041Z,29.90
2017-08-17T21:14:19.248Z,28.23
2017-08-17T21:16:45.364Z,22.27
2017-08-17T21:19:11.819Z,26.03
2017-08-17T21:21:38.042Z,26.70
2017-08-17T21:24:04.273Z,22.33
2017-08-17T21:26:30.958Z,26.63
2017-08-17T21:28:57.210Z,26.53
2017-08-17T21:31:23.413Z,29.20
2017-08-17T21:33:49.919Z,18.70
2017-08-17T21:36:16.162Z,22.60
2017-08-17T21:38:42.387Z,20.00
2017-08-17T21:41:08.967Z,20.00
2017-08-17T21:43:35.115Z,19.70
2017-08-17T21:46:01.222Z,22.47
2017-08-17T21:48:27.688Z,20.67
2017-08-17T21:50:53.952Z,18.60
2017-08-17T21:53:20.203Z,19.47
2017-08-17T21:55:46.685Z,20.43
2017-08-17T21:58:12.876Z,18.27
2017-08-17T22:00:39.056Z,17.50
2017-08-17T22:03:05.592Z,17.67
2017-08-17T22:05:32.496Z,17.83
2017-08-17T22:07:59.366Z,17.10
2017-08-17T22:10:25.916Z,17.23
2017-08-17T22:12:52.106Z,16.73
2017-08-17T22:15:19.048Z,17.07
2017-08-17T22:17:46.096Z,17.33
2017-08-17T22:20:12.222Z,17.07
2017-08-17T22:22:38.338Z,17.97
2017-08-17T22:25:04.812Z,17.37
2017-08-17T22:27:31.725Z,13.60
2017-08-17T22:29:58.569Z,15.27
2017-08-17T22:32:25.138Z,16.07
2017-08-17T22:34:51.330Z,12.40
2017-08-17T22:37:17.453Z,12.87
2017-08-17T22:39:44.676Z,12.70
2017-08-17T22:42:10.855Z,12.50
2017-08-17T22:44:37.055Z,11.93
2017-08-17T22:47:03.520Z,12.23
2017-08-17T22:49:29.742Z,13.10
2017-08-17T22:51:55.952Z,13.47
2017-08-17T22:54:22.415Z,12.07
2017-08-17T22:56:48.600Z,17.80
2017-08-17T22:59:14.718Z,14.40
2017-08-17T23:01:41.305Z,12.30
2017-08-17T23:04:07.522Z,16.60
2017-08-17T23:06:33.730Z,15.87
2017-08-17T23:08:59.973Z,12.30
2017-08-17T23:11:26.921Z,17.23
2017-08-17T23:13:53.113Z,17.20
2017-08-17T23:16:19.289Z,13.40
2017-08-17T23:18:45.413Z,15.20
2017-08-17T23:21:11.626Z,15.40
2017-08-17T23:23:37.865Z,13.60
2017-08-17T23:26:04.858Z,13.23
2017-08-17T23:28:31.002Z,13.93
2017-08-17T23:30:57.293Z,13.20
2017-08-17T23:33:23.416Z,12.93
2017-08-17T23:35:49.526Z,12.80
2017-08-17T23:38:15.765Z,13.50
2017-08-17T23:40:41.962Z,12.90
2017-08-17T23:43:08.178Z,12.83
2017-08-17T23:45:35.080Z,11.70
2017-08-17T23:48:01.263Z,11.77
2017-08-17T23:50:27.456Z,11.40
2017-08-17T23:52:53.658Z,12.13
2017-08-17T23:55:19.822Z,14.53
2017-08-17T23:57:46.749Z,12.57
